sensor_id;sensor_type;location;lat;lon;timestamp;pressure;altitude;pressure_sealevel;temperature;humidity
28004;BME280;15330;51.234;6.754;2023-10-09T00:00:15;100950.97;;;12.40;100.00
28004;BME280;15330;51.234;6.754;2023-10-09T00:03:04;100952.66;;;12.33;100.00
28004;BME280;15330;51.234;6.754;2023-10-09T00:05:32;100952.31;;;12.36;100.00
28004;BME280;15330;51.234;6.754;2023-10-09T00:08:27;100948.31;;;12.32;100.00
28004;BME280;15330;51.234;6.754;2023-10-09T00:10:56;100954.66;;;12.39;100.00
28004;BME280;15330;51.234;6.754;2023-10-09T00:13:23;100956.84;;;12.28;100.00
28004;BME280;15330;51.234;6.754;2023-10-09T00:15:57;100943.63;;;12.34;100.00
28004;BME280;15330;51.234;6.754;2023-10-09T00:18:27;100951.50;;;12.20;100.00
28004;BME280;15330;51.234;6.754;2023-10-09T00:20:58;100951.16;;;12.31;100.00
28004;BME280;15330;51.234;6.754;2023-10-09T00:23:37;100941.75;;;12.27;100.00
28004;BME280;15330;51.234;6.754;2023-10-09T00:26:03;100945.28;;;12.27;100.00
28004;BME280;15330;51.234;6.754;2023-10-09T00:28:36;100935.94;;;12.23;100.00
28004;BME280;15330;51.234;6.754;2023-10-09T00:31:04;100934.56;;;12.27;100.00
28004;BME280;15330;51.234;6.754;2023-10-09T00:33:32;100930.72;;;12.22;100.00
28004;BME280;15330;51.234;6.754;2023-10-09T00:36:04;100923.00;;;12.19;100.00
28004;BME280;15330;51.234;6.754;2023-10-09T00:38:39;100926.50;;;12.27;100.00
28004;BME280;15330;51.234;6.754;2023-10-09T00:41:16;100932.88;;;12.34;100.00
28004;BME280;15330;51.234;6.754;2023-10-09T00:43:50;100930.72;;;12.22;100.00
28004;BME280;15330;51.234;6.754;2023-10-09T00:46:21;100925.16;;;12.31;100.00
28004;BME280;15330;51.234;6.754;2023-10-09T00:48:52;100927.16;;;12.37;100.00
28004;BME280;15330;51.234;6.754;2023-10-09T00:51:19;100918.00;;;12.24;100.00
28004;BME280;15330;51.234;6.754;2023-10-09T00:53:59;100924.84;;;12.34;100.00
28004;BME280;15330;51.234;6.754;2023-10-09T00:56:31;100917.44;;;12.36;100.00
28004;BME280;15330;51.234;6.754;2023-10-09T00:59:05;100912.25;;;12.27;100.00
28004;BME280;15330;51.234;6.754;2023-10-09T01:01:35;100897.00;;;12.27;100.00
28004;BME280;15330;51.234;6.754;2023-10-09T01:04:04;100896.34;;;12.33;100.00
28004;BME280;15330;51.234;6.754;2023-10-09T01:06:36;100906.69;;;12.36;100.00
28004;BME280;15330;51.234;6.754;2023-10-09T01:09:09;100897.19;;;12.34;100.00
28004;BME280;15330;51.234;6.754;2023-10-09T01:11:36;100904.22;;;12.35;100.00
28004;BME280;15330;51.234;6.754;2023-10-09T01:14:13;100892.97;;;12.31;100.00
28004;BME280;15330;51.234;6.754;2023-10-09T01:16:39;100895.34;;;12.34;100.00
28004;BME280;15330;51.234;6.754;2023-10-09T01:19:07;100890.81;;;12.35;100.00
28004;BME280;15330;51.234;6.754;2023-10-09T01:21:51;100885.75;;;12.40;100.00
28004;BME280;15330;51.234;6.754;2023-10-09T01:24:17;100886.28;;;12.35;100.00
28004;BME280;15330;51.234;6.754;2023-10-09T01:26:45;100885.03;;;12.46;100.00
28004;BME280;15330;51.234;6.754;2023-10-09T01:29:20;100883.72;;;12.42;100.00
28004;BME280;15330;51.234;6.754;2023-10-09T01:31:49;100874.50;;;12.44;100.00
28004;BME280;15330;51.234;6.754;2023-10-09T01:36:53;100859.47;;;12.35;100.00
28004;BME280;15330;51.234;6.754;2023-10-09T01:39:25;100858.41;;;12.36;100.00
28004;BME280;15330;51.234;6.754;2023-10-09T01:42:05;100880.53;;;12.38;100.00
28004;BME280;15330;51.234;6.754;2023-10-09T01:44:32;100879.38;;;12.41;100.00
28004;BME280;15330;51.234;6.754;2023-10-09T01:47:04;100882.22;;;12.39;100.00
28004;BME280;15330;51.234;6.754;2023-10-09T01:49:36;100884.69;;;12.49;100.00
28004;BME280;15330;51.234;6.754;2023-10-09T01:52:07;100879.50;;;12.47;100.00
28004;BME280;15330;51.234;6.754;2023-10-09T01:54:40;100884.69;;;12.49;100.00
28004;BME280;15330;51.234;6.754;2023-10-09T01:57:08;100891.88;;;12.57;100.00
28004;BME280;15330;51.234;6.754;2023-10-09T01:59:42;100891.91;;;12.48;100.00
28004;BME280;15330;51.234;6.754;2023-10-09T02:02:14;100890.56;;;12.53;100.00
28004;BME280;15330;51.234;6.754;2023-10-09T02:04:55;100893.53;;;12.58;100.00
28004;BME280;15330;51.234;6.754;2023-10-09T02:07:34;100888.19;;;12.58;100.00
28004;BME280;15330;51.234;6.754;2023-10-09T02:10:15;100887.88;;;12.53;100.00
28004;BME280;15330;51.234;6.754;2023-10-09T02:13:02;100889.19;;;12.57;100.00
28004;BME280;15330;51.234;6.754;2023-10-09T02:15:40;100897.94;;;12.50;100.00
28004;BME280;15330;51.234;6.754;2023-10-09T02:21:04;100893.41;;;12.51;100.00
28004;BME280;15330;51.234;6.754;2023-10-09T02:23:32;100895.94;;;12.53;100.00
28004;BME280;15330;51.234;6.754;2023-10-09T02:26:18;100885.69;;;12.56;100.00
28004;BME280;15330;51.234;6.754;2023-10-09T02:29:04;100885.69;;;12.48;100.00
28004;BME280;15330;51.234;6.754;2023-10-09T02:31:38;100876.47;;;12.50;100.00
28004;BME280;15330;51.234;6.754;2023-10-09T02:34:11;100865.91;;;12.49;100.00
28004;BME280;15330;51.234;6.754;2023-10-09T02:36:37;100865.44;;;12.45;100.00
28004;BME280;15330;51.234;6.754;2023-10-09T02:39:14;100864.91;;;12.50;100.00
28004;BME280;15330;51.234;6.754;2023-10-09T02:41:52;100876.84;;;12.39;100.00
28004;BME280;15330;51.234;6.754;2023-10-09T02:44:20;100886.53;;;12.48;100.00
28004;BME280;15330;51.234;6.754;2023-10-09T02:46:55;100879.34;;;12.49;100.00
28004;BME280;15330;51.234;6.754;2023-10-09T02:49:24;100880.34;;;12.48;100.00
28004;BME280;15330;51.234;6.754;2023-10-09T02:51:50;100875.50;;;12.43;100.00
28004;BME280;15330;51.234;6.754;2023-10-09T02:54:18;100864.75;;;12.52;100.00
28004;BME280;15330;51.234;6.754;2023-10-09T02:56:53;100866.94;;;12.48;100.00
28004;BME280;15330;51.234;6.754;2023-10-09T02:59:21;100866.75;;;12.49;100.00
28004;BME280;15330;51.234;6.754;2023-10-09T03:01:48;100868.09;;;12.54;100.00
28004;BME280;15330;51.234;6.754;2023-10-09T03:04:14;100861.94;;;12.45;100.00
28004;BME280;15330;51.234;6.754;2023-10-09T03:06:41;100866.94;;;12.48;100.00
28004;BME280;15330;51.234;6.754;2023-10-09T03:09:20;100872.28;;;12.48;100.00
28004;BME280;15330;51.234;6.754;2023-10-09T03:11:56;100872.31;;;12.40;100.00
28004;BME280;15330;51.234;6.754;2023-10-09T03:14:28;100865.25;;;12.47;100.00
28004;BME280;15330;51.234;6.754;2023-10-09T03:16:54;100853.38;;;12.41;100.00
28004;BME280;15330;51.234;6.754;2023-10-09T03:19:21;100856.91;;;12.42;100.00
28004;BME280;15330;51.234;6.754;2023-10-09T03:21:46;100847.47;;;12.46;100.00
28004;BME280;15330;51.234;6.754;2023-10-09T03:24:12;100849.19;;;12.39;100.00
28004;BME280;15330;51.234;6.754;2023-10-09T03:26:37;100849.34;;;12.45;100.00
28004;BME280;15330;51.234;6.754;2023-10-09T03:29:03;100850.47;;;12.51;100.00
28004;BME280;15330;51.234;6.754;2023-10-09T03:31:32;100848.69;;;12.43;100.00
28004;BME280;15330;51.234;6.754;2023-10-09T03:33:58;100848.00;;;12.41;100.00
28004;BME280;15330;51.234;6.754;2023-10-09T03:36:24;100851.66;;;12.48;100.00
28004;BME280;15330;51.234;6.754;2023-10-09T03:38:52;100855.69;;;12.53;100.00
28004;BME280;15330;51.234;6.754;2023-10-09T03:41:20;100848.31;;;12.55;100.00
28004;BME280;15330;51.234;6.754;2023-10-09T03:43:45;100836.91;;;12.53;100.00
28004;BME280;15330;51.234;6.754;2023-10-09T03:46:11;100816.66;;;12.42;100.00
28004;BME280;15330;51.234;6.754;2023-10-09T03:48:48;100821.03;;;12.43;100.00
28004;BME280;15330;51.234;6.754;2023-10-09T03:51:14;100830.19;;;12.48;100.00
28004;BME280;15330;51.234;6.754;2023-10-09T03:53:50;100828.06;;;12.44;100.00
28004;BME280;15330;51.234;6.754;2023-10-09T03:56:18;100826.00;;;12.46;100.00
28004;BME280;15330;51.234;6.754;2023-10-09T03:58:45;100820.00;;;12.44;100.00
28004;BME280;15330;51.234;6.754;2023-10-09T04:01:15;100830.56;;;12.45;100.00
28004;BME280;15330;51.234;6.754;2023-10-09T04:03:57;100829.38;;;12.48;100.00
28004;BME280;15330;51.234;6.754;2023-10-09T04:06:30;100819.34;;;12.42;100.00
28004;BME280;15330;51.234;6.754;2023-10-09T04:09:08;100819.00;;;12.45;100.00
28004;BME280;15330;51.234;6.754;2023-10-09T04:11:54;100822.69;;;12.44;100.00
28004;BME280;15330;51.234;6.754;2023-10-09T04:14:39;100822.31;;;12.47;100.00
28004;BME280;15330;51.234;6.754;2023-10-09T04:17:20;100827.06;;;12.45;100.00
28004;BME280;15330;51.234;6.754;2023-10-09T04:19:55;100820.84;;;12.44;100.00
28004;BME280;15330;51.234;6.754;2023-10-09T04:22:42;100831.25;;;12.39;100.00
28004;BME280;15330;51.234;6.754;2023-10-09T04:25:30;100824.16;;;12.46;100.00
28004;BME280;15330;51.234;6.754;2023-10-09T04:28:06;100820.47;;;12.47;100.00
28004;BME280;15330;51.234;6.754;2023-10-09T04:30:57;100812.75;;;12.53;100.00
28004;BME280;15330;51.234;6.754;2023-10-09T04:33:24;100820.09;;;12.59;100.00
28004;BME280;15330;51.234;6.754;2023-10-09T04:38:42;100831.75;;;12.74;100.00
28004;BME280;15330;51.234;6.754;2023-10-09T04:41:26;100820.84;;;12.75;100.00
28004;BME280;15330;51.234;6.754;2023-10-09T04:43:58;100818.50;;;12.72;100.00
28004;BME280;15330;51.234;6.754;2023-10-09T04:46:42;100819.69;;;12.70;100.00
28004;BME280;15330;51.234;6.754;2023-10-09T04:49:23;100826.38;;;12.74;100.00
28004;BME280;15330;51.234;6.754;2023-10-09T04:51:53;100827.88;;;12.76;100.00
28004;BME280;15330;51.234;6.754;2023-10-09T04:54:31;100816.94;;;12.78;100.00
28004;BME280;15330;51.234;6.754;2023-10-09T04:57:04;100808.91;;;12.78;100.00
28004;BME280;15330;51.234;6.754;2023-10-09T04:59:38;100804.84;;;12.82;100.00
28004;BME280;15330;51.234;6.754;2023-10-09T05:02:11;100806.81;;;12.88;100.00
28004;BME280;15330;51.234;6.754;2023-10-09T05:04:44;100801.75;;;12.93;100.00
28004;BME280;15330;51.234;6.754;2023-10-09T05:07:12;100798.91;;;12.95;100.00
28004;BME280;15330;51.234;6.754;2023-10-09T05:09:56;100793.03;;;12.91;100.00
28004;BME280;15330;51.234;6.754;2023-10-09T05:12:40;100798.91;;;12.95;100.00
28004;BME280;15330;51.234;6.754;2023-10-09T05:15:12;100794.38;;;12.95;100.00
28004;BME280;15330;51.234;6.754;2023-10-09T05:17:38;100790.50;;;12.98;100.00
28004;BME280;15330;51.234;6.754;2023-10-09T05:20:05;100776.94;;;12.91;100.00
28004;BME280;15330;51.234;6.754;2023-10-09T05:22:50;100794.00;;;12.98;100.00
28004;BME280;15330;51.234;6.754;2023-10-09T05:25:40;100792.34;;;12.97;100.00
28004;BME280;15330;51.234;6.754;2023-10-09T05:28:43;100798.16;;;13.01;100.00
28004;BME280;15330;51.234;6.754;2023-10-09T05:31:18;100788.63;;;12.98;100.00
28004;BME280;15330;51.234;6.754;2023-10-09T05:34:02;100810.41;;;13.03;100.00
28004;BME280;15330;51.234;6.754;2023-10-09T05:36:31;100841.91;;;13.09;100.00
28004;BME280;15330;51.234;6.754;2023-10-09T05:39:00;100844.31;;;13.04;100.00
28004;BME280;15330;51.234;6.754;2023-10-09T05:41:45;100830.88;;;13.04;100.00
28004;BME280;15330;51.234;6.754;2023-10-09T05:44:25;100824.69;;;13.04;100.00
28004;BME280;15330;51.234;6.754;2023-10-09T05:47:09;100846.09;;;13.12;100.00
28004;BME280;15330;51.234;6.754;2023-10-09T05:49:52;100851.19;;;13.07;100.00
28004;BME280;15330;51.234;6.754;2023-10-09T05:52:33;100846.00;;;13.05;100.00
28004;BME280;15330;51.234;6.754;2023-10-09T05:55:06;100847.00;;;13.04;100.00
28004;BME280;15330;51.234;6.754;2023-10-09T05:57:55;100827.78;;;12.93;100.00
28004;BME280;15330;51.234;6.754;2023-10-09T06:00:21;100831.59;;;12.98;100.00
28004;BME280;15330;51.234;6.754;2023-10-09T06:03:05;100823.06;;;12.95;100.00
28004;BME280;15330;51.234;6.754;2023-10-09T06:08:30;100841.28;;;13.07;100.00
28004;BME280;15330;51.234;6.754;2023-10-09T06:11:10;100837.94;;;13.05;100.00
28004;BME280;15330;51.234;6.754;2023-10-09T06:13:54;100844.13;;;13.06;100.00
28004;BME280;15330;51.234;6.754;2023-10-09T06:16:35;100861.25;;;13.05;100.00
28004;BME280;15330;51.234;6.754;2023-10-09T06:21:52;100871.94;;;13.13;100.00
28004;BME280;15330;51.234;6.754;2023-10-09T06:24:22;100887.84;;;13.22;99.75
28004;BME280;15330;51.234;6.754;2023-10-09T06:26:49;100898.94;;;13.19;99.77
28004;BME280;15330;51.234;6.754;2023-10-09T06:29:24;100903.34;;;13.12;100.00
28004;BME280;15330;51.234;6.754;2023-10-09T06:32:03;100900.09;;;13.25;100.00
28004;BME280;15330;51.234;6.754;2023-10-09T06:34:58;100912.88;;;13.23;100.00
28004;BME280;15330;51.234;6.754;2023-10-09T06:37:51;100915.72;;;13.21;100.00
28004;BME280;15330;51.234;6.754;2023-10-09T06:43:12;100918.19;;;13.31;99.66
28004;BME280;15330;51.234;6.754;2023-10-09T06:45:56;100924.16;;;13.41;99.21
28004;BME280;15330;51.234;6.754;2023-10-09T06:48:40;100911.38;;;13.43;99.33
28004;BME280;15330;51.234;6.754;2023-10-09T06:51:11;100907.19;;;13.41;99.26
28004;BME280;15330;51.234;6.754;2023-10-09T06:53:52;100903.50;;;13.42;98.97
28004;BME280;15330;51.234;6.754;2023-10-09T06:56:22;100900.16;;;13.40;98.63
28004;BME280;15330;51.234;6.754;2023-10-09T06:58:57;100898.69;;;13.37;99.48
28004;BME280;15330;51.234;6.754;2023-10-09T07:01:39;100914.91;;;13.44;99.17
28004;BME280;15330;51.234;6.754;2023-10-09T07:04:05;100916.66;;;13.37;99.64
28004;BME280;15330;51.234;6.754;2023-10-09T07:07:06;100904.06;;;13.37;99.83
28004;BME280;15330;51.234;6.754;2023-10-09T07:09:41;100908.03;;;13.41;99.64
28004;BME280;15330;51.234;6.754;2023-10-09T07:12:25;100906.19;;;13.42;99.88
28004;BME280;15330;51.234;6.754;2023-10-09T07:14:59;100922.66;;;13.62;99.00
28004;BME280;15330;51.234;6.754;2023-10-09T07:17:30;100906.06;;;13.58;99.01
28004;BME280;15330;51.234;6.754;2023-10-09T07:19:59;100908.50;;;13.68;98.23
28004;BME280;15330;51.234;6.754;2023-10-09T07:23:00;100911.91;;;14.51;95.45
28004;BME280;15330;51.234;6.754;2023-10-09T07:25:39;100903.78;;;14.22;94.79
28004;BME280;15330;51.234;6.754;2023-10-09T07:28:21;100903.31;;;14.33;94.26
28004;BME280;15330;51.234;6.754;2023-10-09T07:31:16;100907.13;;;14.24;94.33
28004;BME280;15330;51.234;6.754;2023-10-09T07:33:50;100904.69;;;14.14;95.33
28004;BME280;15330;51.234;6.754;2023-10-09T07:36:31;100902.84;;;14.00;95.53
28004;BME280;15330;51.234;6.754;2023-10-09T07:39:01;100911.53;;;14.02;95.79
28004;BME280;15330;51.234;6.754;2023-10-09T07:41:31;100915.41;;;13.85;95.64
28004;BME280;15330;51.234;6.754;2023-10-09T07:43:57;100907.66;;;13.90;96.12
28004;BME280;15330;51.234;6.754;2023-10-09T07:46:22;100901.13;;;13.84;96.03
28004;BME280;15330;51.234;6.754;2023-10-09T07:49:06;100902.53;;;13.80;96.58
28004;BME280;15330;51.234;6.754;2023-10-09T07:51:36;100905.00;;;13.82;96.54
28004;BME280;15330;51.234;6.754;2023-10-09T07:54:02;100895.44;;;13.65;97.20
28004;BME280;15330;51.234;6.754;2023-10-09T07:59:07;100890.41;;;13.62;97.61
28004;BME280;15330;51.234;6.754;2023-10-09T08:01:47;100893.56;;;13.65;97.62
28004;BME280;15330;51.234;6.754;2023-10-09T08:04:40;100891.81;;;13.72;97.94
28004;BME280;15330;51.234;6.754;2023-10-09T08:07:16;100897.97;;;13.81;97.47
28004;BME280;15330;51.234;6.754;2023-10-09T08:12:42;100869.13;;;13.75;97.86
28004;BME280;15330;51.234;6.754;2023-10-09T08:15:23;100876.44;;;13.66;98.46
28004;BME280;15330;51.234;6.754;2023-10-09T08:17:53;100861.00;;;13.60;98.46
28004;BME280;15330;51.234;6.754;2023-10-09T08:20:23;100874.75;;;13.65;98.48
28004;BME280;15330;51.234;6.754;2023-10-09T08:22:53;100905.81;;;13.68;98.17
28004;BME280;15330;51.234;6.754;2023-10-09T08:25:21;100946.97;;;13.91;97.45
28004;BME280;15330;51.234;6.754;2023-10-09T08:27:57;100956.91;;;14.05;96.89
28004;BME280;15330;51.234;6.754;2023-10-09T08:30:24;100965.47;;;14.09;96.20
28004;BME280;15330;51.234;6.754;2023-10-09T08:32:51;100966.59;;;14.29;95.65
28004;BME280;15330;51.234;6.754;2023-10-09T08:35:48;100966.69;;;14.36;94.74
28004;BME280;15330;51.234;6.754;2023-10-09T08:38:16;100983.84;;;14.57;93.46
28004;BME280;15330;51.234;6.754;2023-10-09T08:40:48;100984.50;;;14.74;93.30
28004;BME280;15330;51.234;6.754;2023-10-09T08:43:17;100954.03;;;14.44;93.27
28004;BME280;15330;51.234;6.754;2023-10-09T08:45:47;100945.53;;;14.18;94.60
28004;BME280;15330;51.234;6.754;2023-10-09T08:48:14;100931.50;;;14.22;94.96
28004;BME280;15330;51.234;6.754;2023-10-09T08:50:43;100916.03;;;14.24;94.46
28004;BME280;15330;51.234;6.754;2023-10-09T08:53:13;100895.59;;;14.15;95.75
28004;BME280;15330;51.234;6.754;2023-10-09T08:55:40;100869.72;;;14.00;96.60
28004;BME280;15330;51.234;6.754;2023-10-09T08:58:06;100892.09;;;14.00;96.39
28004;BME280;15330;51.234;6.754;2023-10-09T09:00:55;100897.19;;;14.10;96.80
28004;BME280;15330;51.234;6.754;2023-10-09T09:03:23;100882.34;;;13.99;96.46
28004;BME280;15330;51.234;6.754;2023-10-09T09:05:59;100889.69;;;14.20;96.67
28004;BME280;15330;51.234;6.754;2023-10-09T09:08:29;100877.81;;;14.00;97.51
28004;BME280;15330;51.234;6.754;2023-10-09T09:13:45;100843.00;;;13.98;97.11
28004;BME280;15330;51.234;6.754;2023-10-09T09:16:24;100830.41;;;13.99;97.79
28004;BME280;15330;51.234;6.754;2023-10-09T09:19:06;100840.31;;;13.98;98.31
28004;BME280;15330;51.234;6.754;2023-10-09T09:21:38;100834.75;;;14.29;96.17
28004;BME280;15330;51.234;6.754;2023-10-09T09:24:09;100843.09;;;14.99;92.05
28004;BME280;15330;51.234;6.754;2023-10-09T09:26:42;100850.63;;;16.37;83.45
28004;BME280;15330;51.234;6.754;2023-10-09T09:29:15;100840.16;;;17.22;79.41
28004;BME280;15330;51.234;6.754;2023-10-09T09:31:56;100849.28;;;16.20;82.17
28004;BME280;15330;51.234;6.754;2023-10-09T09:34:49;100862.50;;;16.42;80.43
28004;BME280;15330;51.234;6.754;2023-10-09T09:37:28;100870.25;;;15.90;84.04
28004;BME280;15330;51.234;6.754;2023-10-09T09:40:02;100875.47;;;16.19;nan
28004;BME280;15330;51.234;6.754;2023-10-09T09:42:42;100873.66;;;15.98;84.54
28004;BME280;15330;51.234;6.754;2023-10-09T09:45:10;100883.69;;;15.83;83.37
28004;BME280;15330;51.234;6.754;2023-10-09T09:47:37;100883.34;;;16.21;83.01
28004;BME280;15330;51.234;6.754;2023-10-09T09:50:05;100875.47;;;16.19;81.84
28004;BME280;15330;51.234;6.754;2023-10-09T09:52:38;100871.59;;;15.72;83.22
28004;BME280;15330;51.234;6.754;2023-10-09T09:55:06;100874.66;;;15.69;83.58
28004;BME280;15330;51.234;6.754;2023-10-09T09:57:32;100880.50;;;15.73;84.79
28004;BME280;15330;51.234;6.754;2023-10-09T10:00:04;100876.94;;;15.66;84.31
28004;BME280;15330;51.234;6.754;2023-10-09T10:02:35;100871.75;;;15.50;85.15
28004;BME280;15330;51.234;6.754;2023-10-09T10:05:05;100884.53;;;15.56;84.69
28004;BME280;15330;51.234;6.754;2023-10-09T10:07:34;100881.72;;;15.70;84.32
28004;BME280;15330;51.234;6.754;2023-10-09T10:10:40;100881.03;;;15.90;82.75
28004;BME280;15330;51.234;6.754;2023-10-09T10:16:13;100879.84;;;16.27;81.58
28004;BME280;15330;51.234;6.754;2023-10-09T10:19:06;100885.09;;;16.35;80.38
28004;BME280;15330;51.234;6.754;2023-10-09T10:21:44;100884.84;;;16.64;79.16
28004;BME280;15330;51.234;6.754;2023-10-09T10:32:56;100895.13;;;16.47;80.63
28004;BME280;15330;51.234;6.754;2023-10-09T10:35:40;100904.00;;;16.41;79.74
28004;BME280;15330;51.234;6.754;2023-10-09T10:41:17;100899.53;;;16.96;76.92
28004;BME280;15330;51.234;6.754;2023-10-09T10:43:44;100912.03;;;17.04;76.79
28004;BME280;15330;51.234;6.754;2023-10-09T10:46:15;100919.09;;;16.98;77.71
28004;BME280;15330;51.234;6.754;2023-10-09T10:49:05;100917.03;;;17.07;76.29
28004;BME280;15330;51.234;6.754;2023-10-09T10:51:41;100919.91;;;16.99;76.18
28004;BME280;15330;51.234;6.754;2023-10-09T10:54:20;100920.84;;;17.39;75.34
28004;BME280;15330;51.234;6.754;2023-10-09T10:57:28;100917.97;;;17.53;74.08
28004;BME280;15330;51.234;6.754;2023-10-09T10:59:55;100917.56;;;17.43;74.42
28004;BME280;15330;51.234;6.754;2023-10-09T11:02:39;100920.06;;;17.51;73.70
28004;BME280;15330;51.234;6.754;2023-10-09T11:05:07;100919.78;;;17.27;74.43
28004;BME280;15330;51.234;6.754;2023-10-09T11:07:50;100912.38;;;17.61;73.20
28004;BME280;15330;51.234;6.754;2023-10-09T11:10:22;100907.78;;;17.62;73.00
28004;BME280;15330;51.234;6.754;2023-10-09T11:12:53;100904.28;;;17.68;73.99
28004;BME280;15330;51.234;6.754;2023-10-09T11:15:38;100914.66;;;17.51;75.10
28004;BME280;15330;51.234;6.754;2023-10-09T11:18:11;100908.47;;;16.97;75.25
28004;BME280;15330;51.234;6.754;2023-10-09T11:20:56;100909.41;;;17.30;74.73
28004;BME280;15330;51.234;6.754;2023-10-09T11:23:29;100910.44;;;17.36;75.08
28004;BME280;15330;51.234;6.754;2023-10-09T11:26:12;100909.16;;;17.25;75.27
28004;BME280;15330;51.234;6.754;2023-10-09T11:31:39;100894.75;;;16.92;73.82
28004;BME280;15330;51.234;6.754;2023-10-09T11:34:18;100898.59;;;17.30;73.41
28004;BME280;15330;51.234;6.754;2023-10-09T11:36:54;100908.03;;;17.67;72.98
28004;BME280;15330;51.234;6.754;2023-10-09T11:39:25;100901.78;;;17.67;73.28
28004;BME280;15330;51.234;6.754;2023-10-09T11:42:06;100903.44;;;17.68;73.14
28004;BME280;15330;51.234;6.754;2023-10-09T11:44:42;100895.97;;;17.70;72.04
28004;BME280;15330;51.234;6.754;2023-10-09T11:47:11;100886.38;;;18.00;72.42
28004;BME280;15330;51.234;6.754;2023-10-09T11:49:54;100887.00;;;18.02;72.85
28004;BME280;15330;51.234;6.754;2023-10-09T11:52:57;100899.28;;;18.11;72.59
28004;BME280;15330;51.234;6.754;2023-10-09T11:55:44;100899.31;;;17.85;72.93
28004;BME280;15330;51.234;6.754;2023-10-09T11:58:13;100887.44;;;17.92;71.79
28004;BME280;15330;51.234;6.754;2023-10-09T12:00:39;100900.50;;;17.49;73.25
28004;BME280;15330;51.234;6.754;2023-10-09T12:03:11;100893.47;;;17.75;73.65
28004;BME280;15330;51.234;6.754;2023-10-09T12:05:36;100883.25;;;17.90;72.18
28004;BME280;15330;51.234;6.754;2023-10-09T12:08:03;100882.81;;;18.13;71.70
28004;BME280;15330;51.234;6.754;2023-10-09T12:10:33;100880.94;;;18.26;71.00
28004;BME280;15330;51.234;6.754;2023-10-09T12:12:59;100885.69;;;18.31;70.94
28004;BME280;15330;51.234;6.754;2023-10-09T12:15:25;100875.84;;;18.56;70.74
28004;BME280;15330;51.234;6.754;2023-10-09T12:17:50;100879.34;;;18.70;69.93
28004;BME280;15330;51.234;6.754;2023-10-09T12:20:19;100877.56;;;18.31;70.67
28004;BME280;15330;51.234;6.754;2023-10-09T12:23:01;100872.34;;;18.43;70.67
28004;BME280;15330;51.234;6.754;2023-10-09T12:25:30;100872.19;;;18.24;70.74
28004;BME280;15330;51.234;6.754;2023-10-09T12:27:59;100876.50;;;18.39;70.98
28004;BME280;15330;51.234;6.754;2023-10-09T12:30:27;100872.34;;;18.29;71.15
28004;BME280;15330;51.234;6.754;2023-10-09T12:32:54;100867.53;;;18.38;71.21
28004;BME280;15330;51.234;6.754;2023-10-09T12:35:20;100869.22;;;18.39;71.68
28004;BME280;15330;51.234;6.754;2023-10-09T12:37:45;100857.03;;;17.90;72.71
28004;BME280;15330;51.234;6.754;2023-10-09T12:40:12;100856.00;;;17.78;72.22
28004;BME280;15330;51.234;6.754;2023-10-09T12:42:37;100857.69;;;17.73;72.47
28004;BME280;15330;51.234;6.754;2023-10-09T12:45:03;100863.25;;;17.38;72.02
28004;BME280;15330;51.234;6.754;2023-10-09T12:47:35;100872.84;;;17.60;72.69
28004;BME280;15330;51.234;6.754;2023-10-09T12:50:04;100872.03;;;17.73;72.37
28004;BME280;15330;51.234;6.754;2023-10-09T12:52:35;100872.84;;;17.67;73.32
28004;BME280;15330;51.234;6.754;2023-10-09T12:55:03;100873.50;;;17.63;72.14
28004;BME280;15330;51.234;6.754;2023-10-09T12:57:33;100868.88;;;17.56;72.38
28004;BME280;15330;51.234;6.754;2023-10-09T12:59:58;100872.19;;;17.39;72.74
28004;BME280;15330;51.234;6.754;2023-10-09T13:02:24;100876.75;;;17.45;73.04
28004;BME280;15330;51.234;6.754;2023-10-09T13:04:59;100877.16;;;17.22;72.85
28004;BME280;15330;51.234;6.754;2023-10-09T13:07:25;100881.75;;;17.35;73.17
28004;BME280;15330;51.234;6.754;2023-10-09T13:09:50;100888.56;;;17.24;73.64
28004;BME280;15330;51.234;6.754;2023-10-09T13:12:35;100896.31;;;17.47;73.72
28004;BME280;15330;51.234;6.754;2023-10-09T13:15:10;100895.72;;;17.58;73.70
28004;BME280;15330;51.234;6.754;2023-10-09T13:17:37;100899.66;;;17.55;73.90
28004;BME280;15330;51.234;6.754;2023-10-09T13:20:03;100898.81;;;17.48;73.80
28004;BME280;15330;51.234;6.754;2023-10-09T13:22:38;100895.47;;;17.46;74.50
28004;BME280;15330;51.234;6.754;2023-10-09T13:25:05;100883.28;;;17.64;74.36
28004;BME280;15330;51.234;6.754;2023-10-09T13:27:30;100890.56;;;17.63;74.77
28004;BME280;15330;51.234;6.754;2023-10-09T13:30:00;100880.28;;;17.45;74.87
28004;BME280;15330;51.234;6.754;2023-10-09T13:32:31;100872.38;;;17.31;74.63
28004;BME280;15330;51.234;6.754;2023-10-09T13:35:03;100876.97;;;17.50;74.45
28004;BME280;15330;51.234;6.754;2023-10-09T13:37:29;100865.78;;;17.73;73.88
28004;BME280;15330;51.234;6.754;2023-10-09T13:39:57;100879.31;;;17.79;73.49
28004;BME280;15330;51.234;6.754;2023-10-09T13:42:23;100883.88;;;17.66;74.01
28004;BME280;15330;51.234;6.754;2023-10-09T13:44:51;100879.94;;;17.68;74.29
28004;BME280;15330;51.234;6.754;2023-10-09T13:47:19;100873.72;;;17.74;74.32
28004;BME280;15330;51.234;6.754;2023-10-09T13:49:46;100869.28;;;17.60;73.52
28004;BME280;15330;51.234;6.754;2023-10-09T13:52:15;100876.13;;;17.30;73.92
28004;BME280;15330;51.234;6.754;2023-10-09T13:54:44;100875.28;;;17.29;74.80
28004;BME280;15330;51.234;6.754;2023-10-09T13:57:13;100877.00;;;17.43;74.28
28004;BME280;15330;51.234;6.754;2023-10-09T13:59:41;100861.81;;;17.69;74.42
28004;BME280;15330;51.234;6.754;2023-10-09T14:02:15;100860.56;;;17.91;73.77